Time;durP1;ratioP1;P1;durP2;ratioP2;P2;SDS_P1;SDS_P2;PMS_P1;PMS_P2;Temp;Humidity;BMP_temperature;BMP_pressure;BME280_temperature;BME280_humidity;BME280_pressure;Samples;Min_cycle;Max_cycle;Signal;HPM_P1;HPM_P2
2023/04/25 00:00:27;;;;;;;5.33;3.07;;;9.10;99.90;;;;;;4995830;28;20510;-78
2023/04/25 00:02:56;;;;;;;3.87;2.73;;;9.20;1.00;;;;;;4998476;28;20449;-79
2023/04/25 00:05:23;;;;;;;3.40;3.13;;;8.90;1.00;;;;;;5002707;28;21013;-79
2023/04/25 00:07:50;;;;;;;4.53;3.60;;;9.10;99.90;;;;;;5002170;28;20452;-78
2023/04/25 00:10:17;;;;;;;2.80;2.60;;;9.00;99.90;;;;;;5009891;28;20926;-78
2023/04/25 00:12:44;;;;;;;4.20;3.17;;;8.70;1.00;;;;;;5007999;28;20428;-78
2023/04/25 00:15:12;;;;;;;4.50;2.60;;;9.00;99.90;;;;;;5010230;28;20513;-78
2023/04/25 00:17:39;;;;;;;6.00;3.30;;;9.00;65.30;;;;;;5008421;28;20437;-78
2023/04/25 00:20:09;;;;;;;3.50;2.97;;;9.00;28.10;;;;;;5004593;28;20449;-78
2023/04/25 00:22:38;;;;;;;4.60;2.50;;;9.00;81.50;;;;;;5003679;28;20433;-78
2023/04/25 00:25:06;;;;;;;2.80;2.60;;;9.00;9.80;;;;;;5003224;28;20495;-79
2023/04/25 00:27:32;;;;;;;3.20;2.63;;;8.90;29.60;;;;;;5008386;28;20432;-79
2023/04/25 00:30:02;;;;;;;5.63;3.23;;;9.00;99.90;;;;;;5016735;28;20443;-79
2023/04/25 00:32:29;;;;;;;4.23;2.93;;;9.00;28.70;;;;;;5011638;28;20448;-79
2023/04/25 00:34:57;;;;;;;4.73;2.47;;;8.90;17.30;;;;;;5010073;28;20524;-79
2023/04/25 00:37:25;;;;;;;5.00;2.90;;;8.90;99.90;;;;;;5002440;28;20449;-79
2023/04/25 00:39:53;;;;;;;2.60;2.20;;;8.60;99.90;;;;;;5002037;28;20455;-79
2023/04/25 00:42:20;;;;;;;3.77;2.90;;;8.90;41.90;;;;;;5001379;28;20442;-78
2023/04/25 00:44:48;;;;;;;6.40;3.17;;;8.90;47.90;;;;;;4999172;28;20500;-79
2023/04/25 00:47:16;;;;;;;3.90;2.80;;;9.00;23.30;;;;;;5000632;28;20433;-79
2023/04/25 00:49:43;;;;;;;2.80;2.60;;;8.90;49.00;;;;;;5000859;28;20448;-78
2023/04/25 00:52:10;;;;;;;3.77;3.30;;;8.90;43.10;;;;;;5001245;28;20812;-79
2023/04/25 00:54:39;;;;;;;6.10;3.30;;;9.00;99.90;;;;;;5001398;28;20483;-79
2023/04/25 00:57:05;;;;;;;5.50;3.40;;;9.00;43.60;;;;;;5003295;28;20531;-79
2023/04/25 00:59:32;;;;;;;4.30;3.33;;;8.90;99.90;;;;;;5002103;28;20453;-78
2023/04/25 01:02:00;;;;;;;5.07;3.00;;;9.00;52.10;;;;;;5001892;28;20419;-78
2023/04/25 01:04:28;;;;;;;5.20;2.90;;;9.00;31.40;;;;;;5002200;28;20564;-78
2023/04/25 01:06:55;;;;;;;6.93;2.90;;;9.00;53.00;;;;;;5001307;28;20463;-78
2023/04/25 01:09:23;;;;;;;6.20;3.70;;;9.00;55.10;;;;;;5002346;28;20823;-78
2023/04/25 01:11:51;;;;;;;3.97;3.60;;;9.00;38.50;;;;;;5002722;28;20480;-78
2023/04/25 01:14:18;;;;;;;5.67;3.30;;;9.00;75.50;;;;;;5000623;28;20444;-79
2023/04/25 01:16:45;;;;;;;10.80;4.37;;;9.00;35.90;;;;;;5000285;28;20441;-78
2023/04/25 01:19:16;;;;;;;2.53;2.33;;;9.00;50.00;;;;;;5001941;28;20449;-78
2023/04/25 01:21:45;;;;;;;8.50;3.73;;;9.00;47.50;;;;;;5001724;28;20428;-79
2023/04/25 01:24:12;;;;;;;8.30;3.30;;;9.00;51.00;;;;;;5001490;28;20468;-78
2023/04/25 01:26:40;;;;;;;4.27;2.90;;;8.90;70.20;;;;;;5008256;28;20572;-78
2023/04/25 01:29:08;;;;;;;5.33;3.50;;;9.00;92.70;;;;;;5011610;28;20484;-78
2023/04/25 01:31:35;;;;;;;4.30;3.47;;;9.00;57.10;;;;;;5008996;28;20502;-79
2023/04/25 01:34:03;;;;;;;6.87;3.43;;;9.00;73.10;;;;;;5011417;28;20497;-78
2023/04/25 01:36:31;;;;;;;5.23;3.23;;;;;;;;;;5008698;28;20416;-79
2023/04/25 01:39:00;;;;;;;8.83;3.60;;;8.90;44.90;;;;;;5008986;28;20455;-79
2023/04/25 01:41:27;;;;;;;6.60;3.23;;;9.00;52.30;;;;;;5011171;28;20433;-79
2023/04/25 01:43:54;;;;;;;10.60;3.77;;;9.00;44.30;;;;;;5008942;28;20499;-79
2023/04/25 01:46:21;;;;;;;4.73;3.30;;;9.00;16.80;;;;;;5000834;28;20575;-78
2023/04/25 01:48:48;;;;;;;9.07;4.17;;;9.00;36.70;;;;;;4999647;28;20459;-78
2023/04/25 01:51:15;;;;;;;5.70;3.73;;;9.10;25.60;;;;;;4999911;28;20427;-78
2023/04/25 01:53:43;;;;;;;4.80;4.00;;;9.00;21.80;;;;;;4999539;28;20476;-78
2023/04/25 01:56:11;;;;;;;5.33;3.83;;;9.00;18.20;;;;;;4999826;28;20453;-78
2023/04/25 01:58:38;;;;;;;4.70;3.30;;;9.20;99.90;;;;;;5000128;28;20461;-78
2023/04/25 02:01:05;;;;;;;4.37;3.00;;;9.00;52.50;;;;;;4999457;28;20457;-78
2023/04/25 02:03:33;;;;;;;3.57;3.20;;;9.10;99.90;;;;;;4999331;28;20511;-78
2023/04/25 02:06:00;;;;;;;4.03;3.63;;;8.60;1.00;;;;;;4998876;28;20488;-79
2023/04/25 02:08:26;;;;;;;5.23;3.93;;;9.10;99.90;;;;;;4998297;28;20445;-79
2023/04/25 02:10:53;;;;;;;4.60;3.90;;;9.00;6.30;;;;;;4998343;28;20875;-79
2023/04/25 02:13:21;;;;;;;5.97;3.73;;;8.90;99.90;;;;;;4997353;28;20440;-78
2023/04/25 02:15:48;;;;;;;7.53;3.97;;;9.00;99.90;;;;;;4997256;28;20420;-78
2023/04/25 02:18:16;;;;;;;7.73;3.80;;;9.00;7.10;;;;;;4997928;28;20982;-78
2023/04/25 02:20:43;;;;;;;8.50;4.70;;;8.90;19.90;;;;;;4997731;28;20453;-78
2023/04/25 02:23:10;;;;;;;8.93;4.00;;;9.00;47.60;;;;;;4997256;28;20481;-78
2023/04/25 02:25:37;;;;;;;4.40;4.00;;;9.00;49.40;;;;;;4997407;28;20461;-79
2023/04/25 02:28:04;;;;;;;6.37;4.37;;;9.00;31.50;;;;;;4997261;28;20486;-79
2023/04/25 02:30:32;;;;;;;6.97;4.37;;;9.00;56.70;;;;;;4999434;28;20438;-79
2023/04/25 02:32:59;;;;;;;5.63;4.50;;;8.90;33.80;;;;;;5001047;28;20475;-78
2023/04/25 02:35:26;;;;;;;8.57;3.90;;;8.90;80.50;;;;;;4999817;28;20452;-78
2023/04/25 02:37:53;;;;;;;7.03;4.40;;;8.90;72.90;;;;;;4997262;28;20455;-78
2023/04/25 02:40:20;;;;;;;5.13;4.63;;;8.90;71.60;;;;;;4997293;28;20455;-78
2023/04/25 02:42:47;;;;;;;4.30;3.90;;;8.90;99.90;;;;;;5001320;28;20828;-78
2023/04/25 02:45:13;;;;;;;5.00;3.90;;;8.90;99.90;;;;;;5006016;28;20495;-78
2023/04/25 02:47:42;;;;;;;4.83;3.83;;;8.90;99.90;;;;;;5005832;28;20491;-78
2023/04/25 02:50:09;;;;;;;5.80;3.67;;;8.80;99.90;;;;;;4998084;28;20452;-79
2023/04/25 02:52:36;;;;;;;4.97;4.43;;;8.80;99.90;;;;;;4998535;28;20463;-79
2023/04/25 02:55:03;;;;;;;8.03;4.70;;;8.90;99.90;;;;;;5001791;28;20484;-78
2023/04/25 02:57:30;;;;;;;7.47;4.53;;;8.90;99.90;;;;;;5006474;28;20448;-79
2023/04/25 02:59:56;;;;;;;8.97;5.23;;;8.90;99.90;;;;;;5007066;28;20459;-79
2023/04/25 03:02:23;;;;;;;11.70;5.27;;;8.80;75.80;;;;;;5002683;28;20520;-79
2023/04/25 03:04:51;;;;;;;6.30;4.27;;;8.80;93.50;;;;;;5000052;28;20484;-79
2023/04/25 03:07:18;;;;;;;12.50;5.50;;;8.80;91.80;;;;;;5000378;28;20495;-79
2023/04/25 03:09:45;;;;;;;5.17;4.67;;;8.80;99.90;;;;;;4999882;28;20481;-79
2023/04/25 03:12:12;;;;;;;12.63;5.27;;;8.80;99.90;;;;;;5000356;28;21042;-79
2023/04/25 03:14:38;;;;;;;5.53;4.30;;;8.70;99.90;;;;;;5001288;28;20476;-79
2023/04/25 03:17:05;;;;;;;7.17;4.60;;;8.80;99.90;;;;;;5001251;28;20445;-80
2023/04/25 03:19:32;;;;;;;6.90;4.67;;;8.70;99.90;;;;;;5007302;28;20559;-79
2023/04/25 03:22:00;;;;;;;12.50;5.90;;;8.70;99.90;;;;;;5006533;28;20480;-80
2023/04/25 03:24:28;;;;;;;6.43;5.03;;;8.80;99.90;;;;;;5001398;28;20443;-80
2023/04/25 03:26:54;;;;;;;9.60;5.30;;;8.80;99.90;;;;;;5001962;28;20481;-79
2023/04/25 03:29:24;;;;;;;5.93;4.33;;;8.70;99.90;;;;;;5004045;28;20427;-79
2023/04/25 03:31:51;;;;;;;8.23;5.17;;;8.70;99.90;;;;;;5008903;28;20502;-79
2023/04/25 03:34:17;;;;;;;8.73;5.80;;;8.70;99.90;;;;;;5008848;28;20465;-79
2023/04/25 03:36:44;;;;;;;11.10;4.40;;;8.70;99.90;;;;;;5009395;28;20977;-79
2023/04/25 03:39:12;;;;;;;6.90;5.63;;;8.80;99.90;;;;;;5009807;28;20452;-79
2023/04/25 03:41:39;;;;;;;5.17;4.73;;;8.80;99.90;;;;;;5006063;28;20428;-79
2023/04/25 03:44:06;;;;;;;6.50;4.83;;;9.00;1.00;;;;;;5005833;28;20987;-79
2023/04/25 03:46:33;;;;;;;10.20;4.43;;;8.90;99.90;;;;;;5005689;28;20490;-79
2023/04/25 03:49:00;;;;;;;4.90;4.33;;;8.80;99.90;;;;;;5005790;28;20435;-80
2023/04/25 03:51:27;;;;;;;6.57;5.27;;;8.80;99.90;;;;;;5004953;28;20448;-79
2023/04/25 03:53:53;;;;;;;8.83;4.47;;;8.80;99.90;;;;;;5005605;28;20527;-79
2023/04/25 03:56:22;;;;;;;10.43;5.40;;;8.80;99.90;;;;;;5005452;28;20544;-78
2023/04/25 03:58:49;;;;;;;9.70;4.60;;;8.70;99.90;;;;;;5005170;28;20551;-78
2023/04/25 04:01:15;;;;;;;6.83;4.20;;;8.70;99.90;;;;;;5005143;28;20803;-79
2023/04/25 04:03:42;;;;;;;7.30;5.03;;;8.80;99.90;;;;;;5005371;28;20490;-78
2023/04/25 04:06:10;;;;;;;6.87;5.00;;;8.70;99.90;;;;;;5005020;28;20556;-78
2023/04/25 04:08:37;;;;;;;8.77;4.70;;;8.70;99.90;;;;;;5004572;28;20452;-78
2023/04/25 04:11:04;;;;;;;10.20;5.40;;;8.70;99.90;;;;;;5004285;28;20427;-78
2023/04/25 04:13:32;;;;;;;10.00;4.73;;;8.60;99.90;;;;;;5006122;28;20439;-78
2023/04/25 04:15:59;;;;;;;7.60;5.77;;;8.60;99.90;;;;;;5004698;28;20470;-78
2023/04/25 04:18:26;;;;;;;8.17;5.40;;;8.70;99.90;;;;;;5002369;28;20459;-79
2023/04/25 04:20:52;;;;;;;5.10;4.63;;;8.70;99.90;;;;;;5002313;28;20449;-78
2023/04/25 04:23:21;;;;;;;10.60;5.20;;;8.70;99.90;;;;;;5001833;28;20527;-78
2023/04/25 04:25:47;;;;;;;7.50;4.80;;;8.70;99.90;;;;;;5005674;28;20427;-78
2023/04/25 04:28:15;;;;;;;7.60;5.37;;;8.60;99.90;;;;;;5002198;28;20531;-78
2023/04/25 04:30:46;;;;;;;6.03;4.90;;;8.70;99.90;;;;;;5001714;28;20453;-78
2023/04/25 04:33:14;;;;;;;6.20;4.37;;;8.80;99.90;;;;;;5001750;28;20465;-78
2023/04/25 04:35:42;;;;;;;14.00;4.97;;;8.80;99.90;;;;;;5000724;28;20788;-78
2023/04/25 04:38:10;;;;;;;9.70;5.40;;;8.70;99.90;;;;;;5000667;28;20492;-79
2023/04/25 04:40:37;;;;;;;6.13;5.53;;;8.70;99.90;;;;;;5001412;28;20879;-79
2023/04/25 04:43:04;;;;;;;8.20;5.77;;;8.70;99.90;;;;;;5001702;28;20472;-80
2023/04/25 04:45:31;;;;;;;8.60;5.60;;;8.70;99.90;;;;;;5002280;28;20444;-80
2023/04/25 04:47:59;;;;;;;5.97;4.87;;;8.70;99.90;;;;;;5005262;28;20459;-80
2023/04/25 04:50:27;;;;;;;5.80;4.70;;;8.70;99.90;;;;;;5006474;28;20436;-80
2023/04/25 04:52:55;;;;;;;10.00;5.70;;;8.50;1.00;;;;;;5001089;28;20427;-80
2023/04/25 04:55:22;;;;;;;5.77;4.70;;;8.90;99.90;;;;;;5001700;28;20437;-80
2023/04/25 04:57:48;;;;;;;7.90;4.80;;;8.90;99.90;;;;;;5002284;28;20445;-79
2023/04/25 05:00:16;;;;;;;9.00;4.73;;;8.90;99.90;;;;;;5005092;28;20455;-81
2023/04/25 05:02:43;;;;;;;5.90;4.53;;;9.30;1.00;;;;;;5006421;28;20452;-80
2023/04/25 05:05:11;;;;;;;6.43;4.43;;;8.80;1.00;;;;;;5011388;28;20483;-81
2023/04/25 05:07:38;;;;;;;8.93;5.83;;;9.00;99.90;;;;;;5011909;28;20490;-81
2023/04/25 05:10:06;;;;;;;6.07;4.90;;;9.00;1.00;;;;;;5014010;28;20444;-81
2023/04/25 05:12:33;;;;;;;5.43;4.30;;;9.10;99.90;;;;;;5012663;28;20427;-81
2023/04/25 05:15:00;;;;;;;10.83;5.77;;;9.00;99.90;;;;;;5007458;28;20479;-81
2023/04/25 05:17:27;;;;;;;10.93;5.37;;;8.90;99.90;;;;;;5007389;28;20455;-81
2023/04/25 05:19:54;;;;;;;9.80;6.23;;;8.50;1.00;;;;;;5005888;28;20480;-81
2023/04/25 05:22:22;;;;;;;7.03;5.37;;;8.90;99.90;;;;;;5006174;28;20459;-80
2023/04/25 05:24:49;;;;;;;5.70;5.10;;;8.80;99.90;;;;;;5009123;28;20467;-81
2023/04/25 05:27:18;;;;;;;12.23;5.10;;;8.80;99.90;;;;;;5007605;28;20456;-81
2023/04/25 05:29:45;;;;;;;5.23;4.73;;;8.80;99.90;;;;;;5003476;28;20465;-81
2023/04/25 05:32:11;;;;;;;9.93;5.90;;;8.80;99.90;;;;;;5001670;28;20797;-80
2023/04/25 05:34:38;;;;;;;6.07;5.03;;;8.80;99.90;;;;;;5001972;28;20511;-80
2023/04/25 05:37:06;;;;;;;10.53;5.20;;;8.90;99.90;;;;;;5008815;28;20982;-80
2023/04/25 05:39:35;;;;;;;10.60;4.97;;;8.90;99.90;;;;;;5008293;28;20503;-81
2023/04/25 05:42:03;;;;;;;9.33;5.20;;;8.90;99.90;;;;;;5007551;28;20620;-80
2023/04/25 05:44:30;;;;;;;6.33;4.53;;;8.90;99.90;;;;;;5002795;28;20594;-81
2023/04/25 05:46:57;;;;;;;8.60;5.67;;;9.10;1.00;;;;;;5001795;28;20451;-81
2023/04/25 05:49:24;;;;;;;6.83;5.10;;;9.30;99.90;;;;;;5000525;28;20492;-81
2023/04/25 05:51:51;;;;;;;7.70;5.57;;;9.10;99.90;;;;;;5000589;28;20449;-81
2023/04/25 05:54:18;;;;;;;5.90;4.80;;;9.20;99.90;;;;;;4999524;28;20488;-81
2023/04/25 05:56:46;;;;;;;7.87;5.40;;;9.10;99.90;;;;;;5000435;28;20445;-80
2023/04/25 05:59:13;;;;;;;9.80;4.70;;;9.20;99.90;;;;;;5000126;28;20512;-81
2023/04/25 06:01:40;;;;;;;8.60;5.40;;;9.20;99.90;;;;;;5000365;28;20449;-81
2023/04/25 06:04:07;;;;;;;7.70;4.70;;;9.10;99.90;;;;;;4999848;28;20473;-80
2023/04/25 06:06:33;;;;;;;8.37;5.20;;;9.10;99.90;;;;;;5002555;28;20532;-81
2023/04/25 06:09:00;;;;;;;10.00;6.20;;;9.00;99.90;;;;;;5000201;28;20459;-81
2023/04/25 06:11:27;;;;;;;10.53;5.40;;;9.10;99.90;;;;;;5000559;28;20457;-81
2023/04/25 06:13:55;;;;;;;11.07;7.73;;;9.00;99.90;;;;;;5012188;28;20511;-81
2023/04/25 06:16:22;;;;;;;8.70;7.30;;;9.30;1.00;;;;;;5011826;28;20480;-79
2023/04/25 06:18:49;;;;;;;8.77;6.57;;;9.10;99.90;;;;;;5011348;28;20445;-81
2023/04/25 06:21:16;;;;;;;8.77;6.10;;;9.20;99.90;;;;;;5011356;28;20820;-80
2023/04/25 06:23:42;;;;;;;13.33;7.13;;;9.40;1.00;;;;;;5009927;28;20461;-80
2023/04/25 06:26:09;;;;;;;6.60;5.90;;;9.30;99.90;;;;;;5012093;28;20440;-80
2023/04/25 06:28:36;;;;;;;7.00;5.47;;;9.30;99.90;;;;;;5014707;28;20485;-80
2023/04/25 06:31:04;;;;;;;10.17;5.00;;;9.40;99.90;;;;;;5014630;28;20449;-80
2023/04/25 06:33:31;;;;;;;10.57;6.10;;;9.30;99.90;;;;;;5009039;28;20480;-81
2023/04/25 06:35:58;;;;;;;7.83;5.60;;;9.10;1.00;;;;;;5003420;28;20481;-81
2023/04/25 06:38:25;;;;;;;7.10;5.60;;;9.20;99.90;;;;;;5005579;28;20449;-80
2023/04/25 06:40:52;;;;;;;10.23;5.83;;;9.20;99.90;;;;;;5012747;28;20452;-80
2023/04/25 06:43:19;;;;;;;6.30;5.70;;;9.40;99.90;;;;;;5013547;28;20496;-80
2023/04/25 06:45:46;;;;;;;7.43;6.00;;;9.30;99.90;;;;;;5016640;28;20456;-80
2023/04/25 06:48:15;;;;;;;6.43;5.83;;;9.60;88.90;;;;;;5017060;28;20483;-79
2023/04/25 06:50:42;;;;;;;6.43;5.37;;;9.40;99.90;;;;;;5002205;28;20804;-81
2023/04/25 06:53:11;;;;;;;8.43;5.80;;;9.40;99.90;;;;;;4999787;28;20538;-81
2023/04/25 06:55:39;;;;;;;8.60;6.33;;;9.40;99.90;;;;;;5000861;28;20435;-81
2023/04/25 06:58:06;;;;;;;7.70;5.90;;;9.50;99.90;;;;;;4999765;28;20441;-80
2023/04/25 07:00:33;;;;;;;10.93;7.50;;;9.50;1.00;;;;;;5008142;28;20481;-80
2023/04/25 07:03:00;;;;;;;6.27;5.60;;;9.60;99.90;;;;;;5010635;28;20499;-80
2023/04/25 07:05:28;;;;;;;11.73;8.20;;;9.50;99.90;;;;;;5006091;28;20447;-80
2023/04/25 07:07:55;;;;;;;5.00;4.50;;;9.50;99.90;;;;;;5001957;28;20487;-80
2023/04/25 07:10:22;;;;;;;9.47;5.53;;;9.60;1.00;;;;;;5000625;28;20452;-81
2023/04/25 07:12:49;;;;;;;7.10;5.30;;;9.20;99.90;;;;;;5002103;28;20512;-80
2023/04/25 07:15:16;;;;;;;10.80;5.10;;;9.50;1.00;;;;;;5008147;28;20456;-80
2023/04/25 07:17:43;;;;;;;5.90;5.30;;;9.50;1.00;;;;;;5007575;28;20932;-80
2023/04/25 07:20:11;;;;;;;8.27;4.93;;;9.30;99.90;;;;;;5003743;28;20480;-81
2023/04/25 07:22:42;;;;;;;6.97;4.90;;;9.20;1.00;;;;;;4999726;28;20459;-81
2023/04/25 07:25:10;;;;;;;10.20;5.60;;;9.10;1.00;;;;;;4998915;28;20461;-81
2023/04/25 07:27:37;;;;;;;13.40;5.80;;;8.90;99.90;;;;;;4998591;28;20852;-81
2023/04/25 07:30:04;;;;;;;11.47;7.83;;;8.90;99.90;;;;;;4998301;28;20449;-80
2023/04/25 07:32:31;;;;;;;4.67;4.27;;;8.90;99.90;;;;;;4998003;28;20473;-80
2023/04/25 07:34:58;;;;;;;9.87;5.67;;;9.10;99.90;;;;;;4998639;28;20465;-80
2023/04/25 07:37:25;;;;;;;7.60;4.30;;;9.00;1.00;;;;;;4999437;28;20420;-81
2023/04/25 07:39:54;;;;;;;5.87;4.33;;;9.00;76.60;;;;;;4998532;28;20456;-80
2023/04/25 07:42:21;;;;;;;11.10;4.27;;;8.80;1.00;;;;;;4999700;28;20480;-81
2023/04/25 07:44:47;;;;;;;15.13;5.63;;;8.80;1.00;;;;;;4998340;28;20962;-82
2023/04/25 07:47:14;;;;;;;7.63;4.23;;;8.90;99.90;;;;;;4998204;28;20477;-81
2023/04/25 07:49:41;;;;;;;6.40;5.43;;;8.90;99.90;;;;;;4998781;28;20477;-80
2023/04/25 07:52:08;;;;;;;8.40;5.00;;;9.10;1.00;;;;;;4998346;28;20544;-80
2023/04/25 07:54:35;;;;;;;12.20;5.80;;;9.20;99.90;;;;;;4998096;28;20909;-80
2023/04/25 07:57:03;;;;;;;12.10;5.10;;;9.20;1.00;;;;;;4999189;28;20810;-81
2023/04/25 07:59:30;;;;;;;11.00;5.00;;;9.30;99.90;;;;;;4998336;28;20459;-81
2023/04/25 08:01:58;;;;;;;11.97;4.90;;;9.50;99.90;;;;;;4999027;28;20445;-81
2023/04/25 08:04:25;;;;;;;9.80;4.77;;;9.50;1.00;;;;;;4999311;28;20468;-81
2023/04/25 08:06:52;;;;;;;9.30;5.27;;;9.50;1.00;;;;;;4998325;28;20441;-80
2023/04/25 08:09:19;;;;;;;16.00;5.17;;;9.60;99.90;;;;;;4999056;28;20437;-81
2023/04/25 08:11:46;;;;;;;20.43;5.20;;;9.60;99.90;;;;;;4998906;28;20448;-81
2023/04/25 08:14:15;;;;;;;13.80;5.47;;;9.30;1.00;;;;;;4998448;28;20487;-81
2023/04/25 08:16:42;;;;;;;17.03;5.17;;;9.00;1.00;;;;;;4997760;28;20453;-81
2023/04/25 08:19:08;;;;;;;15.40;5.27;;;8.80;1.00;;;;;;4998615;28;20967;-81
2023/04/25 08:21:35;;;;;;;12.10;4.90;;;9.00;1.00;;;;;;5001116;28;20444;-79
2023/04/25 08:24:02;;;;;;;12.63;4.00;;;9.10;1.00;;;;;;5006056;28;20471;-79
2023/04/25 08:26:29;;;;;;;13.57;4.97;;;9.00;1.00;;;;;;5006669;28;20858;-80
2023/04/25 08:28:56;;;;;;;13.30;5.07;;;8.90;1.00;;;;;;5002177;28;20485;-80
2023/04/25 08:31:24;;;;;;;13.73;7.40;;;9.20;1.00;;;;;;5003568;28;20492;-80
2023/04/25 08:33:52;;;;;;;16.60;4.90;;;;;;;;;;5004526;28;20540;-81
2023/04/25 08:36:18;;;;;;;16.67;4.80;;;9.60;1.00;;;;;;5005522;28;20445;-80
2023/04/25 08:38:45;;;;;;;6.93;4.33;;;9.80;1.00;;;;;;5004528;28;21035;-80
2023/04/25 08:41:15;;;;;;;13.40;5.20;;;10.00;1.00;;;;;;5003824;28;20463;-80
2023/04/25 08:43:44;;;;;;;12.60;5.30;;;10.10;1.00;;;;;;5006798;28;20508;-81
2023/04/25 08:46:12;;;;;;;14.40;5.93;;;10.00;1.00;;;;;;5008088;28;20445;-81
2023/04/25 08:48:43;;;;;;;9.03;4.30;;;10.10;1.00;;;;;;5014062;28;20476;-81
2023/04/25 08:51:14;;;;;;;7.00;3.70;;;10.20;1.00;;;;;;5012564;28;20430;-79
2023/04/25 08:53:43;;;;;;;9.70;4.40;;;10.20;1.00;;;;;;5004598;28;20492;-80
2023/04/25 08:56:13;;;;;;;8.50;4.43;;;10.40;1.00;;;;;;5003306;28;20445;-81
2023/04/25 08:58:40;;;;;;;13.03;4.00;;;10.20;1.00;;;;;;5002172;28;20472;-80
2023/04/25 09:01:07;;;;;;;10.47;3.40;;;10.30;1.00;;;;;;5001595;28;20457;-80
2023/04/25 09:03:34;;;;;;;15.83;3.63;;;9.70;99.90;;;;;;5001905;28;20500;-80
2023/04/25 09:06:02;;;;;;;10.07;3.80;;;9.70;99.90;;;;;;5001907;28;21015;-81
2023/04/25 09:08:29;;;;;;;10.40;3.90;;;9.80;99.90;;;;;;5000186;28;20849;-79
2023/04/25 09:10:56;;;;;;;5.63;2.87;;;9.90;99.90;;;;;;5001046;28;20936;-80
2023/04/25 09:13:26;;;;;;;8.63;5.63;;;10.10;99.90;;;;;;5002399;28;20473;-79
2023/04/25 09:15:55;;;;;;;16.30;4.40;;;9.80;99.90;;;;;;5009534;28;20440;-79
2023/04/25 09:18:26;;;;;;;13.33;5.10;;;9.60;99.90;;;;;;5010557;28;20514;-80
2023/04/25 09:20:54;;;;;;;8.43;4.10;;;10.00;99.90;;;;;;5006410;28;20468;-81
2023/04/25 09:23:23;;;;;;;8.00;3.60;;;10.40;99.90;;;;;;5006728;28;20469;-80
2023/04/25 09:25:52;;;;;;;13.70;4.80;;;10.50;99.90;;;;;;5008198;28;20540;-80
2023/04/25 09:28:25;;;;;;;5.83;2.90;;;10.80;99.90;;;;;;5006577;28;20492;-80
2023/04/25 09:30:57;;;;;;;10.33;3.50;;;10.60;99.90;;;;;;5006682;28;20436;-80
2023/04/25 09:33:30;;;;;;;11.53;3.40;;;10.70;99.90;;;;;;5004528;28;20469;-81
2023/04/25 09:36:04;;;;;;;8.43;3.67;;;10.50;99.90;;;;;;5003354;28;20447;-80
2023/04/25 09:38:33;;;;;;;6.37;3.30;;;10.70;99.90;;;;;;5018514;28;20421;-80
2023/04/25 09:41:01;;;;;;;6.30;3.50;;;10.90;99.90;;;;;;5019007;28;20472;-80
2023/04/25 09:43:28;;;;;;;6.93;3.27;;;10.70;99.90;;;;;;5017057;28;20565;-81
2023/04/25 09:45:58;;;;;;;7.70;3.10;;;10.80;99.90;;;;;;5014236;28;20444;-81
2023/04/25 09:48:27;;;;;;;11.67;5.00;;;10.90;99.90;;;;;;5014248;28;20634;-81
2023/04/25 09:51:08;;;;;;;10.10;3.47;;;11.00;99.90;;;;;;5012903;28;20476;-81
2023/04/25 09:53:37;;;;;;;11.83;4.47;;;11.00;99.90;;;;;;5014287;28;20537;-81
2023/04/25 09:56:07;;;;;;;9.30;3.50;;;11.10;99.90;;;;;;5015690;28;20441;-81
2023/04/25 09:58:35;;;;;;;8.47;3.53;;;11.20;99.90;;;;;;5014287;28;20940;-81
2023/04/25 10:01:03;;;;;;;5.77;3.60;;;11.40;99.90;;;;;;5014380;28;20814;-81
2023/04/25 10:03:31;;;;;;;7.17;3.10;;;11.40;99.90;;;;;;5013954;28;20524;-81
2023/04/25 10:06:00;;;;;;;14.57;3.60;;;11.50;99.90;;;;;;5013274;28;20479;-81
2023/04/25 10:08:32;;;;;;;9.40;3.30;;;11.50;99.90;;;;;;5009352;28;20484;-81
2023/04/25 10:11:03;;;;;;;7.90;3.33;;;11.30;99.90;;;;;;5005634;28;20442;-81
2023/04/25 10:13:31;;;;;;;7.30;2.90;;;11.50;1.00;;;;;;5004304;28;20469;-81
2023/04/25 10:15:59;;;;;;;9.57;3.60;;;11.30;99.90;;;;;;5001648;28;20479;-82
2023/04/25 10:18:27;;;;;;;16.30;4.07;;;11.30;99.90;;;;;;4999842;28;20452;-81
2023/04/25 10:20:55;;;;;;;11.17;3.00;;;11.50;99.90;;;;;;5000065;28;20444;-81
2023/04/25 10:23:22;;;;;;;10.87;3.97;;;11.20;99.90;;;;;;5005322;28;20473;-80
2023/04/25 10:25:51;;;;;;;7.90;3.63;;;11.50;99.90;;;;;;5005602;28;20426;-81
2023/04/25 10:28:19;;;;;;;9.57;2.70;;;11.60;99.90;;;;;;5004351;28;20539;-81
2023/04/25 10:30:59;;;;;;;6.93;3.23;;;11.70;99.90;;;;;;5004757;28;20994;-81
2023/04/25 10:33:35;;;;;;;4.17;2.50;;;11.50;1.00;;;;;;5000492;28;20473;-81
2023/04/25 10:36:10;;;;;;;8.00;3.17;;;11.30;99.90;;;;;;5000179;28;20452;-81
2023/04/25 10:38:37;;;;;;;14.07;3.40;;;11.20;99.90;;;;;;5000565;28;20428;-81
2023/04/25 10:41:05;;;;;;;5.90;3.10;;;11.50;1.00;;;;;;5000357;28;20457;-81
2023/04/25 10:43:38;;;;;;;7.90;3.23;;;11.20;99.90;;;;;;5003171;28;20529;-81
2023/04/25 10:46:15;;;;;;;8.80;3.40;;;11.40;99.90;;;;;;5015295;28;20460;-80
2023/04/25 10:48:47;;;;;;;8.67;3.67;;;11.40;99.90;;;;;;5014549;28;20500;-81
2023/04/25 10:51:18;;;;;;;5.80;2.73;;;11.30;99.90;;;;;;5006517;28;20447;-81
2023/04/25 10:53:46;;;;;;;4.67;2.80;;;11.20;1.00;;;;;;5005341;28;20483;-81
2023/04/25 10:56:17;;;;;;;9.63;3.87;;;10.90;99.90;;;;;;4999443;28;20476;-82
2023/04/25 10:58:46;;;;;;;9.23;4.20;;;10.90;1.00;;;;;;5000702;28;20437;-82
2023/04/25 11:01:14;;;;;;;9.93;4.20;;;10.80;1.00;;;;;;5000559;28;20444;-81
2023/04/25 11:03:43;;;;;;;4.57;3.03;;;11.30;1.00;;;;;;5003410;28;20472;-81
2023/04/25 11:06:23;;;;;;;5.43;3.17;;;11.00;99.90;;;;;;5004457;28;20540;-82
2023/04/25 11:08:51;;;;;;;10.43;4.10;;;11.70;1.00;;;;;;5004503;28;20497;-81
2023/04/25 11:11:19;;;;;;;7.03;2.70;;;11.50;99.90;;;;;;5007870;28;20456;-80
2023/04/25 11:13:50;;;;;;;12.57;5.30;;;11.90;99.90;;;;;;5009745;28;20525;-80
2023/04/25 11:16:17;;;;;;;9.27;5.00;;;11.80;99.90;;;;;;5000487;28;20481;-81
2023/04/25 11:18:44;;;;;;;6.13;3.90;;;11.60;99.90;;;;;;4998778;28;20451;-80
2023/04/25 11:21:11;;;;;;;5.33;3.50;;;11.50;99.90;;;;;;4999133;28;20528;-80
2023/04/25 11:23:38;;;;;;;6.20;3.17;;;11.40;99.90;;;;;;4999744;28;20464;-81
2023/04/25 11:26:05;;;;;;;11.73;3.60;;;11.20;99.90;;;;;;4999391;28;20445;-81
2023/04/25 11:28:32;;;;;;;11.43;3.50;;;10.90;1.00;;;;;;4998761;28;20499;-81
2023/04/25 11:31:01;;;;;;;3.73;2.43;;;10.80;99.90;;;;;;5006610;28;20551;-81
2023/04/25 11:33:28;;;;;;;4.03;2.97;;;;;;;;;;5007935;28;20535;-81
2023/04/25 11:35:56;;;;;;;7.30;3.00;;;10.70;99.90;;;;;;5007745;28;20452;-81
2023/04/25 11:38:23;;;;;;;8.93;3.00;;;10.50;99.90;;;;;;5007331;28;20455;-80
2023/04/25 11:40:54;;;;;;;5.00;3.60;;;10.10;99.90;;;;;;5006836;28;20426;-81
2023/04/25 11:43:22;;;;;;;6.90;3.07;;;10.30;99.90;;;;;;5006579;28;20501;-81
2023/04/25 11:45:50;;;;;;;4.40;2.40;;;10.20;99.90;;;;;;5006165;28;20480;-81
2023/04/25 11:48:19;;;;;;;4.27;3.07;;;10.70;1.00;;;;;;5005672;28;20856;-80
2023/04/25 11:50:46;;;;;;;5.53;3.10;;;10.20;99.90;;;;;;5004906;28;20460;-81
2023/04/25 11:53:13;;;;;;;5.70;2.37;;;10.10;99.90;;;;;;5005742;28;20531;-82
2023/04/25 11:55:40;;;;;;;2.50;2.10;;;10.20;99.90;;;;;;5005802;28;20936;-81
2023/04/25 11:58:08;;;;;;;7.70;3.30;;;10.30;99.90;;;;;;5005333;28;20455;-81
2023/04/25 12:00:35;;;;;;;5.80;2.93;;;10.50;1.00;;;;;;5009576;28;20434;-80
2023/04/25 12:03:02;;;;;;;11.03;2.73;;;10.80;99.90;;;;;;5010450;28;20439;-81
2023/04/25 12:05:33;;;;;;;8.13;2.90;;;11.10;99.90;;;;;;5009614;28;20452;-82
2023/04/25 12:08:10;;;;;;;3.50;2.97;;;11.10;99.90;;;;;;5009868;28;20433;-81
2023/04/25 12:10:39;;;;;;;7.00;2.20;;;11.20;1.00;;;;;;5009071;28;20433;-81
2023/04/25 12:13:19;;;;;;;4.90;2.20;;;;;;;;;;5009090;28;20469;-80
2023/04/25 12:15:46;;;;;;;9.73;3.40;;;10.70;99.90;;;;;;5009580;28;20468;-81
2023/04/25 12:18:13;;;;;;;10.33;2.93;;;10.90;1.00;;;;;;5009773;28;20513;-81
2023/04/25 12:20:43;;;;;;;4.73;2.60;;;10.90;99.90;;;;;;5010080;28;20455;-81
2023/04/25 12:23:10;;;;;;;5.27;2.70;;;11.10;1.00;;;;;;5012659;28;20508;-80
2023/04/25 12:25:39;;;;;;;4.17;2.70;;;11.10;99.90;;;;;;5008799;28;20449;-81
2023/04/25 12:28:16;;;;;;;8.23;2.83;;;11.10;99.90;;;;;;5013140;28;20535;-80
2023/04/25 12:31:00;;;;;;;4.80;2.77;;;11.10;99.90;;;;;;5014244;28;20468;-80
2023/04/25 12:33:28;;;;;;;7.27;2.70;;;11.20;99.90;;;;;;5012556;28;20919;-80
2023/04/25 12:35:57;;;;;;;8.03;2.87;;;11.00;1.00;;;;;;5009490;28;20424;-81
2023/04/25 12:38:29;;;;;;;8.27;2.83;;;11.30;99.90;;;;;;5008354;28;20450;-81
2023/04/25 12:40:57;;;;;;;7.17;3.00;;;11.60;99.90;;;;;;5007298;28;20452;-80
2023/04/25 12:43:24;;;;;;;4.53;2.50;;;11.60;99.90;;;;;;5009222;28;20879;-81
2023/04/25 12:45:52;;;;;;;8.23;3.20;;;11.70;99.90;;;;;;5014577;28;20445;-81
2023/04/25 12:48:20;;;;;;;3.47;2.60;;;11.70;99.90;;;;;;5020106;28;20408;-81
2023/04/25 12:50:48;;;;;;;5.67;2.73;;;11.80;99.90;;;;;;5002833;28;20440;-81
2023/04/25 12:53:17;;;;;;;7.37;2.90;;;11.60;99.90;;;;;;5001137;28;20604;-81
2023/04/25 12:55:45;;;;;;;4.10;3.07;;;11.60;99.90;;;;;;5009296;28;20460;-81
2023/04/25 12:58:13;;;;;;;9.60;3.37;;;10.90;1.00;;;;;;5012189;28;20476;-81